sensor_id;sensor_type;location;lat;lon;timestamp;temperature;humidity
21216;DHT22;10765;50.954;5.322;2024-02-26T00:02:23;6.40;99.90
21216;DHT22;10765;50.954;5.322;2024-02-26T00:04:51;6.30;99.90
21216;DHT22;10765;50.954;5.322;2024-02-26T00:07:18;6.30;99.90
21216;DHT22;10765;50.954;5.322;2024-02-26T00:09:45;6.30;1.00
21216;DHT22;10765;50.954;5.322;2024-02-26T00:12:12;6.20;7.10
21216;DHT22;10765;50.954;5.322;2024-02-26T00:14:39;6.30;1.00
21216;DHT22;10765;50.954;5.322;2024-02-26T00:17:06;6.20;1.00
21216;DHT22;10765;50.954;5.322;2024-02-26T00:19:35;6.20;99.90
21216;DHT22;10765;50.954;5.322;2024-02-26T00:22:03;6.20;43.00
21216;DHT22;10765;50.954;5.322;2024-02-26T00:24:30;6.20;99.90
21216;DHT22;10765;50.954;5.322;2024-02-26T00:26:57;6.20;1.00
21216;DHT22;10765;50.954;5.322;2024-02-26T00:29:24;6.20;99.90
21216;DHT22;10765;50.954;5.322;2024-02-26T00:31:51;6.20;99.90
21216;DHT22;10765;50.954;5.322;2024-02-26T00:34:18;6.20;99.90
21216;DHT22;10765;50.954;5.322;2024-02-26T00:36:45;6.20;99.90
21216;DHT22;10765;50.954;5.322;2024-02-26T00:39:13;6.20;1.00
21216;DHT22;10765;50.954;5.322;2024-02-26T00:41:41;6.10;99.90
21216;DHT22;10765;50.954;5.322;2024-02-26T00:44:08;6.10;1.00
21216;DHT22;10765;50.954;5.322;2024-02-26T00:46:34;6.10;1.00
21216;DHT22;10765;50.954;5.322;2024-02-26T00:49:01;6.10;1.00
21216;DHT22;10765;50.954;5.322;2024-02-26T00:51:28;6.10;1.00
21216;DHT22;10765;50.954;5.322;2024-02-26T00:53:55;6.00;1.00
21216;DHT22;10765;50.954;5.322;2024-02-26T00:56:26;6.00;99.90
21216;DHT22;10765;50.954;5.322;2024-02-26T00:58:53;6.00;82.20
21216;DHT22;10765;50.954;5.322;2024-02-26T01:01:20;6.00;1.00
21216;DHT22;10765;50.954;5.322;2024-02-26T01:03:47;6.00;99.90
21216;DHT22;10765;50.954;5.322;2024-02-26T01:06:14;6.00;1.00
21216;DHT22;10765;50.954;5.322;2024-02-26T01:08:41;6.00;1.00
21216;DHT22;10765;50.954;5.322;2024-02-26T01:11:08;6.00;99.90
21216;DHT22;10765;50.954;5.322;2024-02-26T01:13:36;6.00;1.00
21216;DHT22;10765;50.954;5.322;2024-02-26T01:16:03;6.00;99.90
21216;DHT22;10765;50.954;5.322;2024-02-26T01:18:30;5.90;1.00
21216;DHT22;10765;50.954;5.322;2024-02-26T01:20:57;5.90;1.00
21216;DHT22;10765;50.954;5.322;2024-02-26T01:23:24;5.90;1.00
21216;DHT22;10765;50.954;5.322;2024-02-26T01:25:51;5.90;1.00
21216;DHT22;10765;50.954;5.322;2024-02-26T01:28:18;5.90;99.90
21216;DHT22;10765;50.954;5.322;2024-02-26T01:30:46;5.90;99.90
21216;DHT22;10765;50.954;5.322;2024-02-26T01:33:13;5.90;99.90
21216;DHT22;10765;50.954;5.322;2024-02-26T01:35:40;5.90;1.00
21216;DHT22;10765;50.954;5.322;2024-02-26T01:38:07;5.90;99.90
21216;DHT22;10765;50.954;5.322;2024-02-26T01:40:34;5.90;1.00
21216;DHT22;10765;50.954;5.322;2024-02-26T01:43:02;5.90;99.90
21216;DHT22;10765;50.954;5.322;2024-02-26T01:45:29;5.90;1.00
21216;DHT22;10765;50.954;5.322;2024-02-26T01:47:57;5.90;1.00
21216;DHT22;10765;50.954;5.322;2024-02-26T01:50:24;5.80;99.90
21216;DHT22;10765;50.954;5.322;2024-02-26T01:52:53;5.90;99.90
21216;DHT22;10765;50.954;5.322;2024-02-26T01:55:22;5.90;99.90
21216;DHT22;10765;50.954;5.322;2024-02-26T01:57:50;5.90;99.90
21216;DHT22;10765;50.954;5.322;2024-02-26T02:00:18;5.80;99.90
21216;DHT22;10765;50.954;5.322;2024-02-26T02:02:48;5.80;99.90
21216;DHT22;10765;50.954;5.322;2024-02-26T02:05:17;5.90;99.90
21216;DHT22;10765;50.954;5.322;2024-02-26T02:07:44;5.80;99.90
21216;DHT22;10765;50.954;5.322;2024-02-26T02:10:12;5.90;99.90
21216;DHT22;10765;50.954;5.322;2024-02-26T02:12:39;5.80;99.90
21216;DHT22;10765;50.954;5.322;2024-02-26T02:15:07;5.90;99.90
21216;DHT22;10765;50.954;5.322;2024-02-26T02:17:34;5.90;99.90
21216;DHT22;10765;50.954;5.322;2024-02-26T02:20:01;5.90;99.90
21216;DHT22;10765;50.954;5.322;2024-02-26T02:22:30;5.90;99.90
21216;DHT22;10765;50.954;5.322;2024-02-26T02:24:59;5.90;99.90
21216;DHT22;10765;50.954;5.322;2024-02-26T02:27:27;5.80;99.90
21216;DHT22;10765;50.954;5.322;2024-02-26T02:29:54;5.90;99.90
21216;DHT22;10765;50.954;5.322;2024-02-26T02:32:21;5.90;99.90
21216;DHT22;10765;50.954;5.322;2024-02-26T02:34:50;5.90;99.90
21216;DHT22;10765;50.954;5.322;2024-02-26T02:37:17;5.90;99.90
21216;DHT22;10765;50.954;5.322;2024-02-26T02:39:45;5.90;99.90
21216;DHT22;10765;50.954;5.322;2024-02-26T02:42:12;5.80;99.90
21216;DHT22;10765;50.954;5.322;2024-02-26T02:44:39;5.80;99.90
21216;DHT22;10765;50.954;5.322;2024-02-26T02:47:06;5.80;99.90
21216;DHT22;10765;50.954;5.322;2024-02-26T02:49:33;5.80;99.90
21216;DHT22;10765;50.954;5.322;2024-02-26T02:52:00;5.80;99.90
21216;DHT22;10765;50.954;5.322;2024-02-26T02:54:27;5.80;99.90
21216;DHT22;10765;50.954;5.322;2024-02-26T02:56:55;5.80;99.90
21216;DHT22;10765;50.954;5.322;2024-02-26T02:59:22;5.70;99.90
21216;DHT22;10765;50.954;5.322;2024-02-26T03:01:49;5.80;99.90
21216;DHT22;10765;50.954;5.322;2024-02-26T03:04:16;5.70;99.90
21216;DHT22;10765;50.954;5.322;2024-02-26T03:06:43;5.70;99.90
21216;DHT22;10765;50.954;5.322;2024-02-26T03:09:09;5.70;99.90
21216;DHT22;10765;50.954;5.322;2024-02-26T03:11:36;5.70;99.90
21216;DHT22;10765;50.954;5.322;2024-02-26T03:14:05;5.70;99.90
21216;DHT22;10765;50.954;5.322;2024-02-26T03:16:33;5.70;99.90
21216;DHT22;10765;50.954;5.322;2024-02-26T03:19:00;5.70;99.90
21216;DHT22;10765;50.954;5.322;2024-02-26T03:21:27;5.70;99.90
21216;DHT22;10765;50.954;5.322;2024-02-26T03:23:54;5.70;99.90
21216;DHT22;10765;50.954;5.322;2024-02-26T03:26:21;5.60;99.90
21216;DHT22;10765;50.954;5.322;2024-02-26T03:28:48;5.70;99.90
21216;DHT22;10765;50.954;5.322;2024-02-26T03:31:16;5.60;99.90
21216;DHT22;10765;50.954;5.322;2024-02-26T03:33:43;5.70;99.90
21216;DHT22;10765;50.954;5.322;2024-02-26T03:36:10;5.60;99.90
21216;DHT22;10765;50.954;5.322;2024-02-26T03:38:37;5.70;99.90
21216;DHT22;10765;50.954;5.322;2024-02-26T03:41:04;5.70;99.90
21216;DHT22;10765;50.954;5.322;2024-02-26T03:43:31;5.70;99.90
21216;DHT22;10765;50.954;5.322;2024-02-26T03:45:58;5.70;99.90
21216;DHT22;10765;50.954;5.322;2024-02-26T03:48:27;5.60;99.90
21216;DHT22;10765;50.954;5.322;2024-02-26T03:50:53;5.60;99.90
21216;DHT22;10765;50.954;5.322;2024-02-26T03:53:20;5.60;99.90
21216;DHT22;10765;50.954;5.322;2024-02-26T03:55:47;5.60;99.90
21216;DHT22;10765;50.954;5.322;2024-02-26T03:58:14;5.70;99.90
21216;DHT22;10765;50.954;5.322;2024-02-26T04:00:42;5.70;99.90
21216;DHT22;10765;50.954;5.322;2024-02-26T04:03:09;5.70;99.90
21216;DHT22;10765;50.954;5.322;2024-02-26T04:05:38;5.70;99.90
21216;DHT22;10765;50.954;5.322;2024-02-26T04:08:05;5.70;99.90
21216;DHT22;10765;50.954;5.322;2024-02-26T04:10:32;5.70;99.90
21216;DHT22;10765;50.954;5.322;2024-02-26T04:13:03;5.70;99.90
21216;DHT22;10765;50.954;5.322;2024-02-26T04:15:32;5.70;99.90
21216;DHT22;10765;50.954;5.322;2024-02-26T04:17:59;5.70;99.90
21216;DHT22;10765;50.954;5.322;2024-02-26T04:20:26;5.70;99.90
21216;DHT22;10765;50.954;5.322;2024-02-26T04:22:54;5.70;99.90
21216;DHT22;10765;50.954;5.322;2024-02-26T04:25:21;5.70;99.90
21216;DHT22;10765;50.954;5.322;2024-02-26T04:27:48;5.70;99.90
21216;DHT22;10765;50.954;5.322;2024-02-26T04:30:15;5.70;99.90
21216;DHT22;10765;50.954;5.322;2024-02-26T04:32:42;5.60;99.90
21216;DHT22;10765;50.954;5.322;2024-02-26T04:35:10;5.60;99.90
21216;DHT22;10765;50.954;5.322;2024-02-26T04:37:37;5.70;99.90
21216;DHT22;10765;50.954;5.322;2024-02-26T04:40:06;5.60;99.90
21216;DHT22;10765;50.954;5.322;2024-02-26T04:42:33;5.60;99.90
21216;DHT22;10765;50.954;5.322;2024-02-26T04:45:00;5.70;99.90
21216;DHT22;10765;50.954;5.322;2024-02-26T04:47:27;5.60;99.90
21216;DHT22;10765;50.954;5.322;2024-02-26T04:49:55;5.60;99.90
21216;DHT22;10765;50.954;5.322;2024-02-26T04:52:22;5.70;99.90
21216;DHT22;10765;50.954;5.322;2024-02-26T04:54:49;5.70;99.90
21216;DHT22;10765;50.954;5.322;2024-02-26T04:57:17;5.70;99.90
21216;DHT22;10765;50.954;5.322;2024-02-26T04:59:44;5.70;99.90
21216;DHT22;10765;50.954;5.322;2024-02-26T05:02:11;5.70;99.90
21216;DHT22;10765;50.954;5.322;2024-02-26T05:04:38;5.70;99.90
21216;DHT22;10765;50.954;5.322;2024-02-26T05:07:05;5.70;99.90
21216;DHT22;10765;50.954;5.322;2024-02-26T05:09:32;5.70;99.90
21216;DHT22;10765;50.954;5.322;2024-02-26T05:11:59;5.70;99.90
21216;DHT22;10765;50.954;5.322;2024-02-26T05:14:27;5.70;99.90
21216;DHT22;10765;50.954;5.322;2024-02-26T05:16:54;5.70;99.90
21216;DHT22;10765;50.954;5.322;2024-02-26T05:19:21;5.70;99.90
21216;DHT22;10765;50.954;5.322;2024-02-26T05:21:50;5.70;99.90
21216;DHT22;10765;50.954;5.322;2024-02-26T05:24:17;5.70;99.90
21216;DHT22;10765;50.954;5.322;2024-02-26T05:26:48;5.70;99.90
21216;DHT22;10765;50.954;5.322;2024-02-26T05:29:15;5.70;99.90
21216;DHT22;10765;50.954;5.322;2024-02-26T05:31:43;5.60;99.90
21216;DHT22;10765;50.954;5.322;2024-02-26T05:34:10;5.60;99.90
21216;DHT22;10765;50.954;5.322;2024-02-26T05:36:37;5.60;99.90
21216;DHT22;10765;50.954;5.322;2024-02-26T05:39:04;5.60;99.90
21216;DHT22;10765;50.954;5.322;2024-02-26T05:41:31;5.60;99.90
21216;DHT22;10765;50.954;5.322;2024-02-26T05:43:58;5.60;99.90
21216;DHT22;10765;50.954;5.322;2024-02-26T05:46:25;5.60;99.90
21216;DHT22;10765;50.954;5.322;2024-02-26T05:48:54;5.60;99.90
21216;DHT22;10765;50.954;5.322;2024-02-26T05:51:20;5.60;99.90
21216;DHT22;10765;50.954;5.322;2024-02-26T05:53:47;5.60;99.90
21216;DHT22;10765;50.954;5.322;2024-02-26T05:56:19;5.60;99.90
21216;DHT22;10765;50.954;5.322;2024-02-26T05:58:46;5.60;99.90
21216;DHT22;10765;50.954;5.322;2024-02-26T06:01:14;5.50;99.90
21216;DHT22;10765;50.954;5.322;2024-02-26T06:03:41;5.50;99.90
21216;DHT22;10765;50.954;5.322;2024-02-26T06:06:10;5.50;99.90
21216;DHT22;10765;50.954;5.322;2024-02-26T06:08:36;5.50;99.90
21216;DHT22;10765;50.954;5.322;2024-02-26T06:11:05;5.50;99.90
21216;DHT22;10765;50.954;5.322;2024-02-26T06:13:33;5.50;99.90
21216;DHT22;10765;50.954;5.322;2024-02-26T06:15:59;5.50;99.90
21216;DHT22;10765;50.954;5.322;2024-02-26T06:18:26;5.50;99.90
21216;DHT22;10765;50.954;5.322;2024-02-26T06:20:53;5.50;99.90
21216;DHT22;10765;50.954;5.322;2024-02-26T06:23:24;5.50;99.90
21216;DHT22;10765;50.954;5.322;2024-02-26T06:25:51;5.50;99.90
21216;DHT22;10765;50.954;5.322;2024-02-26T06:28:18;5.50;99.90
21216;DHT22;10765;50.954;5.322;2024-02-26T06:30:45;5.50;99.90
21216;DHT22;10765;50.954;5.322;2024-02-26T06:33:12;5.50;99.90
21216;DHT22;10765;50.954;5.322;2024-02-26T06:35:39;5.50;99.90
21216;DHT22;10765;50.954;5.322;2024-02-26T06:38:07;5.50;99.90
21216;DHT22;10765;50.954;5.322;2024-02-26T06:40:36;5.50;99.90
21216;DHT22;10765;50.954;5.322;2024-02-26T06:43:03;5.50;99.90
21216;DHT22;10765;50.954;5.322;2024-02-26T06:45:30;5.50;99.90
21216;DHT22;10765;50.954;5.322;2024-02-26T06:47:57;5.50;99.90
21216;DHT22;10765;50.954;5.322;2024-02-26T06:50:23;5.40;99.90
21216;DHT22;10765;50.954;5.322;2024-02-26T06:52:50;5.40;99.90
21216;DHT22;10765;50.954;5.322;2024-02-26T06:55:17;5.40;99.90
21216;DHT22;10765;50.954;5.322;2024-02-26T06:57:45;5.40;99.90
21216;DHT22;10765;50.954;5.322;2024-02-26T07:00:13;5.50;99.90
21216;DHT22;10765;50.954;5.322;2024-02-26T07:02:42;5.50;99.90
21216;DHT22;10765;50.954;5.322;2024-02-26T07:05:09;5.40;99.90
21216;DHT22;10765;50.954;5.322;2024-02-26T07:07:38;5.40;99.90
21216;DHT22;10765;50.954;5.322;2024-02-26T07:10:06;5.40;99.90
21216;DHT22;10765;50.954;5.322;2024-02-26T07:12:33;5.40;99.90
21216;DHT22;10765;50.954;5.322;2024-02-26T07:15:01;5.40;99.90
21216;DHT22;10765;50.954;5.322;2024-02-26T07:17:29;5.40;99.90
21216;DHT22;10765;50.954;5.322;2024-02-26T07:19:56;5.40;99.90
21216;DHT22;10765;50.954;5.322;2024-02-26T07:22:22;5.40;99.90
21216;DHT22;10765;50.954;5.322;2024-02-26T07:24:50;5.40;99.90
21216;DHT22;10765;50.954;5.322;2024-02-26T07:27:18;5.40;99.90
21216;DHT22;10765;50.954;5.322;2024-02-26T07:29:46;5.40;99.90
21216;DHT22;10765;50.954;5.322;2024-02-26T07:32:14;5.40;99.90
21216;DHT22;10765;50.954;5.322;2024-02-26T07:34:42;5.40;99.90
21216;DHT22;10765;50.954;5.322;2024-02-26T07:37:10;5.50;99.90
21216;DHT22;10765;50.954;5.322;2024-02-26T07:39:37;5.40;99.90
21216;DHT22;10765;50.954;5.322;2024-02-26T07:42:04;5.40;99.90
21216;DHT22;10765;50.954;5.322;2024-02-26T07:44:32;5.50;99.90
21216;DHT22;10765;50.954;5.322;2024-02-26T07:46:59;5.50;99.90
21216;DHT22;10765;50.954;5.322;2024-02-26T07:49:27;5.50;99.90
21216;DHT22;10765;50.954;5.322;2024-02-26T07:51:54;5.50;99.90
21216;DHT22;10765;50.954;5.322;2024-02-26T07:54:23;5.50;99.90
21216;DHT22;10765;50.954;5.322;2024-02-26T07:56:50;5.50;99.90
21216;DHT22;10765;50.954;5.322;2024-02-26T07:59:17;5.50;99.90
21216;DHT22;10765;50.954;5.322;2024-02-26T08:01:44;5.50;99.90
21216;DHT22;10765;50.954;5.322;2024-02-26T08:04:11;5.50;99.90
21216;DHT22;10765;50.954;5.322;2024-02-26T08:06:39;5.50;99.90
21216;DHT22;10765;50.954;5.322;2024-02-26T08:09:06;5.50;99.90
21216;DHT22;10765;50.954;5.322;2024-02-26T08:11:33;5.50;99.90
21216;DHT22;10765;50.954;5.322;2024-02-26T08:14:00;5.50;99.90
21216;DHT22;10765;50.954;5.322;2024-02-26T08:16:27;5.50;99.90
21216;DHT22;10765;50.954;5.322;2024-02-26T08:18:54;5.50;99.90
21216;DHT22;10765;50.954;5.322;2024-02-26T08:21:21;5.50;99.90
21216;DHT22;10765;50.954;5.322;2024-02-26T08:23:49;5.50;99.90
21216;DHT22;10765;50.954;5.322;2024-02-26T08:26:16;5.50;99.90
21216;DHT22;10765;50.954;5.322;2024-02-26T08:28:46;5.50;99.90
21216;DHT22;10765;50.954;5.322;2024-02-26T08:31:13;5.50;99.90
21216;DHT22;10765;50.954;5.322;2024-02-26T08:33:40;5.40;99.90
21216;DHT22;10765;50.954;5.322;2024-02-26T08:36:07;5.50;99.90
21216;DHT22;10765;50.954;5.322;2024-02-26T08:38:34;5.50;99.90
21216;DHT22;10765;50.954;5.322;2024-02-26T08:41:03;5.50;99.90
21216;DHT22;10765;50.954;5.322;2024-02-26T08:43:31;5.50;99.90
21216;DHT22;10765;50.954;5.322;2024-02-26T08:45:58;5.50;99.90
21216;DHT22;10765;50.954;5.322;2024-02-26T08:48:24;5.40;99.90
21216;DHT22;10765;50.954;5.322;2024-02-26T08:50:51;5.40;99.90
21216;DHT22;10765;50.954;5.322;2024-02-26T08:53:18;5.40;99.90
21216;DHT22;10765;50.954;5.322;2024-02-26T08:55:46;5.50;99.90
21216;DHT22;10765;50.954;5.322;2024-02-26T08:58:14;5.50;99.90
21216;DHT22;10765;50.954;5.322;2024-02-26T09:00:41;5.50;99.90
21216;DHT22;10765;50.954;5.322;2024-02-26T09:03:08;5.50;99.90
21216;DHT22;10765;50.954;5.322;2024-02-26T09:05:35;5.50;99.90
21216;DHT22;10765;50.954;5.322;2024-02-26T09:08:02;5.50;99.90
21216;DHT22;10765;50.954;5.322;2024-02-26T09:10:29;5.50;99.90
21216;DHT22;10765;50.954;5.322;2024-02-26T09:12:56;5.50;99.90
21216;DHT22;10765;50.954;5.322;2024-02-26T09:15:24;5.50;99.90
21216;DHT22;10765;50.954;5.322;2024-02-26T09:17:51;5.50;99.90
21216;DHT22;10765;50.954;5.322;2024-02-26T09:20:18;5.50;99.90
21216;DHT22;10765;50.954;5.322;2024-02-26T09:22:45;5.50;99.90
21216;DHT22;10765;50.954;5.322;2024-02-26T09:25:12;5.50;99.90
21216;DHT22;10765;50.954;5.322;2024-02-26T09:27:41;5.60;99.90
21216;DHT22;10765;50.954;5.322;2024-02-26T09:30:09;5.60;99.90
21216;DHT22;10765;50.954;5.322;2024-02-26T09:32:37;5.60;99.90
21216;DHT22;10765;50.954;5.322;2024-02-26T09:35:05;5.70;99.90
21216;DHT22;10765;50.954;5.322;2024-02-26T09:37:32;5.70;99.90
21216;DHT22;10765;50.954;5.322;2024-02-26T09:39:59;5.70;99.90
21216;DHT22;10765;50.954;5.322;2024-02-26T09:42:26;5.70;99.90
21216;DHT22;10765;50.954;5.322;2024-02-26T09:44:54;5.70;99.90
21216;DHT22;10765;50.954;5.322;2024-02-26T09:47:23;5.70;99.90
21216;DHT22;10765;50.954;5.322;2024-02-26T09:49:52;5.70;99.90
21216;DHT22;10765;50.954;5.322;2024-02-26T09:52:20;5.70;99.90
21216;DHT22;10765;50.954;5.322;2024-02-26T09:54:48;5.70;99.90
21216;DHT22;10765;50.954;5.322;2024-02-26T09:57:15;5.80;99.90
21216;DHT22;10765;50.954;5.322;2024-02-26T09:59:44;5.80;99.90
21216;DHT22;10765;50.954;5.322;2024-02-26T10:02:12;5.80;99.90
21216;DHT22;10765;50.954;5.322;2024-02-26T10:04:40;6.00;99.90
21216;DHT22;10765;50.954;5.322;2024-02-26T10:07:11;6.00;99.90
21216;DHT22;10765;50.954;5.322;2024-02-26T10:09:38;5.90;99.90
21216;DHT22;10765;50.954;5.322;2024-02-26T10:12:08;5.90;99.90
21216;DHT22;10765;50.954;5.322;2024-02-26T10:14:35;6.00;99.90
21216;DHT22;10765;50.954;5.322;2024-02-26T10:17:03;6.10;99.90
21216;DHT22;10765;50.954;5.322;2024-02-26T10:19:33;6.00;99.90
21216;DHT22;10765;50.954;5.322;2024-02-26T10:22:01;6.00;99.90
21216;DHT22;10765;50.954;5.322;2024-02-26T10:24:31;6.10;99.90
21216;DHT22;10765;50.954;5.322;2024-02-26T10:26:59;6.10;99.90
21216;DHT22;10765;50.954;5.322;2024-02-26T10:29:26;6.00;99.90
21216;DHT22;10765;50.954;5.322;2024-02-26T10:31:54;6.00;99.90
21216;DHT22;10765;50.954;5.322;2024-02-26T10:34:21;6.10;99.90
21216;DHT22;10765;50.954;5.322;2024-02-26T10:36:49;6.10;99.90
21216;DHT22;10765;50.954;5.322;2024-02-26T10:39:15;6.00;99.90
21216;DHT22;10765;50.954;5.322;2024-02-26T10:41:44;5.90;99.90
21216;DHT22;10765;50.954;5.322;2024-02-26T10:44:12;5.90;99.90
21216;DHT22;10765;50.954;5.322;2024-02-26T10:46:40;5.90;99.90
21216;DHT22;10765;50.954;5.322;2024-02-26T10:49:13;5.90;99.90
21216;DHT22;10765;50.954;5.322;2024-02-26T10:51:44;5.80;99.90
21216;DHT22;10765;50.954;5.322;2024-02-26T10:54:15;5.90;99.90
21216;DHT22;10765;50.954;5.322;2024-02-26T10:56:43;5.90;99.90
21216;DHT22;10765;50.954;5.322;2024-02-26T10:59:13;5.90;99.90
21216;DHT22;10765;50.954;5.322;2024-02-26T11:01:41;5.90;99.90
21216;DHT22;10765;50.954;5.322;2024-02-26T11:04:12;5.90;99.90
21216;DHT22;10765;50.954;5.322;2024-02-26T11:06:40;5.90;99.90
21216;DHT22;10765;50.954;5.322;2024-02-26T11:09:08;5.80;99.90
21216;DHT22;10765;50.954;5.322;2024-02-26T11:11:38;5.80;99.90
21216;DHT22;10765;50.954;5.322;2024-02-26T11:14:09;5.80;99.90
21216;DHT22;10765;50.954;5.322;2024-02-26T11:16:38;5.80;99.90
21216;DHT22;10765;50.954;5.322;2024-02-26T11:19:06;5.80;99.90
21216;DHT22;10765;50.954;5.322;2024-02-26T11:21:36;5.70;99.90
21216;DHT22;10765;50.954;5.322;2024-02-26T11:24:08;5.70;99.90
21216;DHT22;10765;50.954;5.322;2024-02-26T11:26:38;5.70;99.90
21216;DHT22;10765;50.954;5.322;2024-02-26T11:29:09;5.70;99.90
21216;DHT22;10765;50.954;5.322;2024-02-26T11:31:38;5.60;99.90
21216;DHT22;10765;50.954;5.322;2024-02-26T11:34:06;5.60;99.90
21216;DHT22;10765;50.954;5.322;2024-02-26T11:36:34;5.60;99.90
21216;DHT22;10765;50.954;5.322;2024-02-26T11:39:01;5.70;99.90
21216;DHT22;10765;50.954;5.322;2024-02-26T11:41:28;5.70;99.90
21216;DHT22;10765;50.954;5.322;2024-02-26T11:43:59;5.70;99.90
21216;DHT22;10765;50.954;5.322;2024-02-26T11:46:28;5.80;99.90
21216;DHT22;10765;50.954;5.322;2024-02-26T11:48:59;5.80;99.90
21216;DHT22;10765;50.954;5.322;2024-02-26T11:51:26;5.80;99.90
21216;DHT22;10765;50.954;5.322;2024-02-26T11:53:54;5.90;99.90
21216;DHT22;10765;50.954;5.322;2024-02-26T11:56:23;5.80;99.90
21216;DHT22;10765;50.954;5.322;2024-02-26T11:58:59;5.90;99.90
21216;DHT22;10765;50.954;5.322;2024-02-26T12:01:41;5.90;99.90
21216;DHT22;10765;50.954;5.322;2024-02-26T12:04:13;6.00;99.90
21216;DHT22;10765;50.954;5.322;2024-02-26T12:06:43;5.90;99.90
21216;DHT22;10765;50.954;5.322;2024-02-26T12:09:10;6.00;99.90
21216;DHT22;10765;50.954;5.322;2024-02-26T12:11:39;6.00;99.90
21216;DHT22;10765;50.954;5.322;2024-02-26T12:14:07;5.90;99.90
21216;DHT22;10765;50.954;5.322;2024-02-26T12:16:37;5.90;99.90
21216;DHT22;10765;50.954;5.322;2024-02-26T12:19:05;6.00;99.90
21216;DHT22;10765;50.954;5.322;2024-02-26T12:21:34;6.00;99.90
21216;DHT22;10765;50.954;5.322;2024-02-26T12:24:12;6.00;99.90
21216;DHT22;10765;50.954;5.322;2024-02-26T12:26:39;6.00;99.90
21216;DHT22;10765;50.954;5.322;2024-02-26T12:29:06;6.00;99.90
21216;DHT22;10765;50.954;5.322;2024-02-26T12:31:33;6.20;99.90
21216;DHT22;10765;50.954;5.322;2024-02-26T12:34:04;6.20;99.90
21216;DHT22;10765;50.954;5.322;2024-02-26T12:36:31;6.30;99.90
21216;DHT22;10765;50.954;5.322;2024-02-26T12:39:00;6.10;99.90
21216;DHT22;10765;50.954;5.322;2024-02-26T12:41:29;6.00;99.90
21216;DHT22;10765;50.954;5.322;2024-02-26T12:43:57;6.00;99.90
21216;DHT22;10765;50.954;5.322;2024-02-26T12:46:25;6.20;99.90
21216;DHT22;10765;50.954;5.322;2024-02-26T12:48:51;6.30;99.90
21216;DHT22;10765;50.954;5.322;2024-02-26T12:51:21;6.30;99.90
21216;DHT22;10765;50.954;5.322;2024-02-26T12:53:49;6.40;99.90
21216;DHT22;10765;50.954;5.322;2024-02-26T12:56:18;6.50;99.90
21216;DHT22;10765;50.954;5.322;2024-02-26T12:58:45;6.30;99.90
21216;DHT22;10765;50.954;5.322;2024-02-26T13:01:15;6.20;99.90
21216;DHT22;10765;50.954;5.322;2024-02-26T13:03:43;6.30;99.90
21216;DHT22;10765;50.954;5.322;2024-02-26T13:06:10;6.40;99.90
21216;DHT22;10765;50.954;5.322;2024-02-26T13:08:39;6.30;99.90
21216;DHT22;10765;50.954;5.322;2024-02-26T13:11:06;6.20;99.90
21216;DHT22;10765;50.954;5.322;2024-02-26T13:13:33;6.10;99.90
21216;DHT22;10765;50.954;5.322;2024-02-26T13:16:04;6.10;99.90
21216;DHT22;10765;50.954;5.322;2024-02-26T13:18:33;6.20;99.90
21216;DHT22;10765;50.954;5.322;2024-02-26T13:21:13;6.20;99.90
21216;DHT22;10765;50.954;5.322;2024-02-26T13:23:42;6.10;99.90
21216;DHT22;10765;50.954;5.322;2024-02-26T13:26:12;6.20;99.90
21216;DHT22;10765;50.954;5.322;2024-02-26T13:28:40;6.20;99.90
21216;DHT22;10765;50.954;5.322;2024-02-26T13:31:08;6.20;99.90
21216;DHT22;10765;50.954;5.322;2024-02-26T13:33:35;6.20;99.90
21216;DHT22;10765;50.954;5.322;2024-02-26T13:36:03;6.20;99.90
21216;DHT22;10765;50.954;5.322;2024-02-26T13:38:30;6.20;99.90
21216;DHT22;10765;50.954;5.322;2024-02-26T13:40:59;6.30;99.90
21216;DHT22;10765;50.954;5.322;2024-02-26T13:43:26;6.30;99.90
21216;DHT22;10765;50.954;5.322;2024-02-26T13:45:53;6.40;99.90
21216;DHT22;10765;50.954;5.322;2024-02-26T13:48:20;6.50;99.90
21216;DHT22;10765;50.954;5.322;2024-02-26T13:50:46;6.40;99.90
21216;DHT22;10765;50.954;5.322;2024-02-26T13:53:14;6.30;99.90
21216;DHT22;10765;50.954;5.322;2024-02-26T13:55:41;6.20;99.90
21216;DHT22;10765;50.954;5.322;2024-02-26T13:58:12;6.30;99.90
21216;DHT22;10765;50.954;5.322;2024-02-26T14:00:40;6.50;99.90
21216;DHT22;10765;50.954;5.322;2024-02-26T14:03:07;6.50;99.90
21216;DHT22;10765;50.954;5.322;2024-02-26T14:05:34;6.50;99.90
21216;DHT22;10765;50.954;5.322;2024-02-26T14:08:01;6.50;99.90
21216;DHT22;10765;50.954;5.322;2024-02-26T14:10:28;6.40;99.90
21216;DHT22;10765;50.954;5.322;2024-02-26T14:12:55;6.30;99.90
21216;DHT22;10765;50.954;5.322;2024-02-26T14:15:24;6.20;99.90
21216;DHT22;10765;50.954;5.322;2024-02-26T14:17:51;6.40;99.90
21216;DHT22;10765;50.954;5.322;2024-02-26T14:20:21;6.30;99.90
21216;DHT22;10765;50.954;5.322;2024-02-26T14:22:48;6.40;99.90
21216;DHT22;10765;50.954;5.322;2024-02-26T14:25:18;6.30;99.90
21216;DHT22;10765;50.954;5.322;2024-02-26T14:27:46;6.30;99.90
21216;DHT22;10765;50.954;5.322;2024-02-26T14:30:13;6.20;99.90
21216;DHT22;10765;50.954;5.322;2024-02-26T14:32:42;6.20;99.90
21216;DHT22;10765;50.954;5.322;2024-02-26T14:35:09;6.20;99.90
21216;DHT22;10765;50.954;5.322;2024-02-26T14:37:36;6.30;99.90
21216;DHT22;10765;50.954;5.322;2024-02-26T14:40:04;6.30;99.90
21216;DHT22;10765;50.954;5.322;2024-02-26T14:42:31;6.50;99.90
21216;DHT22;10765;50.954;5.322;2024-02-26T14:44:58;6.40;99.90
21216;DHT22;10765;50.954;5.322;2024-02-26T14:47:25;6.40;99.90
21216;DHT22;10765;50.954;5.322;2024-02-26T14:49:53;6.50;99.90
21216;DHT22;10765;50.954;5.322;2024-02-26T14:52:20;6.40;99.90
21216;DHT22;10765;50.954;5.322;2024-02-26T14:54:47;6.50;99.90
21216;DHT22;10765;50.954;5.322;2024-02-26T14:57:14;6.50;99.90
21216;DHT22;10765;50.954;5.322;2024-02-26T14:59:41;6.40;99.90
21216;DHT22;10765;50.954;5.322;2024-02-26T15:02:09;6.40;99.90
21216;DHT22;10765;50.954;5.322;2024-02-26T15:04:36;6.60;99.90
21216;DHT22;10765;50.954;5.322;2024-02-26T15:07:07;6.60;99.90
21216;DHT22;10765;50.954;5.322;2024-02-26T15:09:35;6.50;99.90
21216;DHT22;10765;50.954;5.322;2024-02-26T15:12:04;6.60;99.90
21216;DHT22;10765;50.954;5.322;2024-02-26T15:14:33;6.60;99.90
21216;DHT22;10765;50.954;5.322;2024-02-26T15:17:00;6.60;99.90
21216;DHT22;10765;50.954;5.322;2024-02-26T15:19:27;6.60;99.90
21216;DHT22;10765;50.954;5.322;2024-02-26T15:21:54;6.60;99.90
21216;DHT22;10765;50.954;5.322;2024-02-26T15:24:22;6.60;99.90
21216;DHT22;10765;50.954;5.322;2024-02-26T15:26:49;6.70;99.90
21216;DHT22;10765;50.954;5.322;2024-02-26T15:29:16;6.60;99.90
21216;DHT22;10765;50.954;5.322;2024-02-26T15:31:43;6.60;99.90
21216;DHT22;10765;50.954;5.322;2024-02-26T15:34:10;6.50;99.90
21216;DHT22;10765;50.954;5.322;2024-02-26T15:36:37;6.50;99.90
21216;DHT22;10765;50.954;5.322;2024-02-26T15:39:04;6.50;99.90
21216;DHT22;10765;50.954;5.322;2024-02-26T15:41:34;6.50;99.90
21216;DHT22;10765;50.954;5.322;2024-02-26T15:44:01;6.40;99.90
21216;DHT22;10765;50.954;5.322;2024-02-26T15:46:28;6.40;99.90
21216;DHT22;10765;50.954;5.322;2024-02-26T15:48:55;6.40;99.90
21216;DHT22;10765;50.954;5.322;2024-02-26T15:51:22;6.40;99.90